createdAt,value
2022-08-03T00:00:55.978Z,88.97
2022-08-03T00:01:55.948Z,89.07
2022-08-03T00:02:56.056Z,88.97
2022-08-03T00:03:55.927Z,89.07
2022-08-03T00:04:55.958Z,89.07
2022-08-03T00:06:04.411Z,88.97
2022-08-03T00:06:56.889Z,88.97
2022-08-03T00:07:55.877Z,88.97
2022-08-03T00:08:55.874Z,89.07
2022-08-03T00:09:55.857Z,89.17
2022-08-03T00:10:55.859Z,89.17
2022-08-03T00:11:55.840Z,89.28
2022-08-03T00:12:55.838Z,89.48
2022-08-03T00:13:55.815Z,89.48
2022-08-03T00:14:55.816Z,89.48
2022-08-03T00:15:55.787Z,89.62
2022-08-03T00:16:55.777Z,89.52
2022-08-03T00:17:55.766Z,89.42
2022-08-03T00:18:55.758Z,89.52
2022-08-03T00:19:55.745Z,89.72
2022-08-03T00:20:55.747Z,90.03
2022-08-03T00:21:55.716Z,90.12
2022-08-03T00:22:55.713Z,90.12
2022-08-03T00:23:55.706Z,90.23
2022-08-03T00:24:55.697Z,90.23
2022-08-03T00:25:55.719Z,90.03
2022-08-03T00:26:55.676Z,89.92
2022-08-03T00:27:55.690Z,89.83
2022-08-03T00:28:55.666Z,89.83
2022-08-03T00:29:59.958Z,89.83
2022-08-03T00:30:55.629Z,89.72
2022-08-03T00:31:59.530Z,89.62
2022-08-03T00:32:55.607Z,89.62
2022-08-03T00:33:59.972Z,89.52
2022-08-03T00:34:58.485Z,89.52
2022-08-03T00:35:55.575Z,89.62
2022-08-03T00:36:55.564Z,89.72
2022-08-03T00:37:55.545Z,89.92
2022-08-03T00:38:55.534Z,89.92
2022-08-03T00:39:55.522Z,89.92
2022-08-03T00:40:55.524Z,89.97
2022-08-03T00:41:55.529Z,90.12
2022-08-03T00:42:55.490Z,90.17
2022-08-03T00:43:55.474Z,90.27
2022-08-03T00:44:55.454Z,90.37
2022-08-03T00:45:55.446Z,90.47
2022-08-03T00:46:55.455Z,90.47
2022-08-03T00:47:55.433Z,90.27
2022-08-03T00:48:55.520Z,90.03
2022-08-03T00:49:55.404Z,89.87
2022-08-03T00:50:55.394Z,89.87
2022-08-03T00:51:55.393Z,89.92
2022-08-03T00:52:55.382Z,89.97
2022-08-03T00:53:55.363Z,90.07
2022-08-03T00:54:55.343Z,90.07
2022-08-03T00:55:55.362Z,90.07
2022-08-03T00:56:59.556Z,90.17
2022-08-03T00:57:56.322Z,90.07
2022-08-03T00:58:55.301Z,90.17
2022-08-03T00:59:55.304Z,90.17
2022-08-03T01:00:55.302Z,90.07
2022-08-03T01:01:55.270Z,89.97
2022-08-03T01:02:55.272Z,89.97
2022-08-03T01:03:55.242Z,89.97
2022-08-03T01:04:55.232Z,89.87
2022-08-03T01:05:55.242Z,89.97
2022-08-03T01:06:55.212Z,90.07
2022-08-03T01:07:55.208Z,90.07
2022-08-03T01:08:55.191Z,90.17
2022-08-03T01:09:55.182Z,90.27
2022-08-03T01:10:55.192Z,90.27
2022-08-03T01:12:00.589Z,90.17
2022-08-03T01:12:56.139Z,90.17
2022-08-03T01:14:04.123Z,90.17
2022-08-03T01:14:56.115Z,90.07
2022-08-03T01:15:55.129Z,90.07
2022-08-03T01:16:55.090Z,89.97
2022-08-03T01:17:55.093Z,89.97
2022-08-03T01:18:55.072Z,89.97
2022-08-03T01:19:55.060Z,89.91
2022-08-03T01:20:55.052Z,89.91
2022-08-03T01:21:55.050Z,90.21
2022-08-03T01:22:55.768Z,90.21
2022-08-03T01:23:55.019Z,90.11
2022-08-03T01:24:55.009Z,90.11
2022-08-03T01:25:54.999Z,90.01
2022-08-03T01:26:54.981Z,90.21
2022-08-03T01:27:54.991Z,90.21
2022-08-03T01:28:54.961Z,90.21
2022-08-03T01:29:54.949Z,90.21
2022-08-03T01:30:54.937Z,90.21
2022-08-03T01:33:00.296Z,90.21
2022-08-03T01:33:00.813Z,90.11
2022-08-03T01:33:55.918Z,90.01
2022-08-03T01:34:54.890Z,89.91
2022-08-03T01:35:54.878Z,89.91
2022-08-03T01:36:54.869Z,89.81
2022-08-03T01:37:54.848Z,89.81
2022-08-03T01:38:54.847Z,89.91
2022-08-03T01:39:54.839Z,90.01
2022-08-03T01:40:54.834Z,90.01
2022-08-03T01:41:54.835Z,90.11
2022-08-03T01:42:54.798Z,90.11
2022-08-03T01:44:27.817Z,90.21
2022-08-03T01:44:55.786Z,90.21
2022-08-03T01:45:54.766Z,90.11
2022-08-03T01:46:54.749Z,90.11
2022-08-03T01:47:54.738Z,90.01
2022-08-03T01:48:54.790Z,90.01
2022-08-03T01:49:54.734Z,90.01
2022-08-03T01:50:54.707Z,90.01
2022-08-03T01:51:56.676Z,90.16
2022-08-03T01:52:55.685Z,90.25
2022-08-03T01:53:54.668Z,90.25
2022-08-03T01:54:54.685Z,90.25
2022-08-03T01:55:54.646Z,90.25
2022-08-03T01:56:54.639Z,90.25
2022-08-03T01:58:05.741Z,90.25
2022-08-03T01:58:55.617Z,90.16
2022-08-03T01:59:54.599Z,90.16
2022-08-03T02:00:54.656Z,90.05
2022-08-03T02:02:31.836Z,90.16
2022-08-03T02:02:55.573Z,90.16
2022-08-03T02:04:00.226Z,90.25
2022-08-03T02:04:55.545Z,90.36
2022-08-03T02:06:11.718Z,90.45
2022-08-03T02:06:59.942Z,90.66
2022-08-03T02:07:55.505Z,90.76
2022-08-03T02:08:54.505Z,90.76
2022-08-03T02:09:54.505Z,90.66
2022-08-03T02:10:54.489Z,90.56
2022-08-03T02:11:54.466Z,90.45
2022-08-03T02:12:54.453Z,90.36
2022-08-03T02:13:54.435Z,90.36
2022-08-03T02:14:54.433Z,90.36
2022-08-03T02:15:54.424Z,90.45
2022-08-03T02:16:54.413Z,90.45
2022-08-03T02:17:54.395Z,90.45
2022-08-03T02:18:54.385Z,90.56
2022-08-03T02:19:54.375Z,90.56
2022-08-03T02:20:54.373Z,90.45
2022-08-03T02:21:56.982Z,90.56
2022-08-03T02:22:55.343Z,90.66
2022-08-03T02:23:54.330Z,90.66
2022-08-03T02:24:54.313Z,90.45
2022-08-03T02:25:54.313Z,90.30
2022-08-03T02:26:54.294Z,90.20
2022-08-03T02:27:54.283Z,90.40
2022-08-03T02:28:54.272Z,90.70
2022-08-03T02:29:54.261Z,90.80
2022-08-03T02:30:54.262Z,90.70
2022-08-03T02:31:54.250Z,90.50
2022-08-03T02:32:54.225Z,90.50
2022-08-03T02:33:54.212Z,90.50
2022-08-03T02:34:54.202Z,90.50
2022-08-03T02:35:54.194Z,90.80
2022-08-03T02:36:54.192Z,90.80
2022-08-03T02:37:54.169Z,90.91
2022-08-03T02:38:54.197Z,90.70
2022-08-03T02:39:54.141Z,90.50
2022-08-03T02:40:54.132Z,90.40
2022-08-03T02:41:54.131Z,90.30
2022-08-03T02:42:54.110Z,90.50
2022-08-03T02:44:06.535Z,90.70
2022-08-03T02:44:55.090Z,90.70
2022-08-03T02:45:54.073Z,90.40
2022-08-03T02:46:54.201Z,90.30
2022-08-03T02:47:54.954Z,90.09
2022-08-03T02:48:54.063Z,90.09
2022-08-03T02:49:54.049Z,90.03
2022-08-03T02:50:54.029Z,90.03
2022-08-03T02:51:54.017Z,89.83
2022-08-03T02:52:54.002Z,89.83
2022-08-03T02:53:53.988Z,89.94
2022-08-03T02:54:53.969Z,90.03
2022-08-03T02:55:53.960Z,90.14
2022-08-03T02:56:53.977Z,90.24
2022-08-03T02:57:53.938Z,90.24
2022-08-03T02:58:53.930Z,90.34
2022-08-03T02:59:53.908Z,90.34
2022-08-03T03:00:53.989Z,90.34
2022-08-03T03:01:53.888Z,90.24
2022-08-03T03:02:53.890Z,90.24
2022-08-03T03:03:53.867Z,90.24
2022-08-03T03:05:50.938Z,90.44
2022-08-03T03:05:57.808Z,90.64
2022-08-03T03:06:53.837Z,90.64
2022-08-03T03:07:53.828Z,90.54
2022-08-03T03:08:59.309Z,90.54
2022-08-03T03:09:54.799Z,90.54
2022-08-03T03:10:55.626Z,90.64
2022-08-03T03:11:53.781Z,90.64
2022-08-03T03:12:53.777Z,90.54
2022-08-03T03:13:53.757Z,90.24
2022-08-03T03:14:53.748Z,90.08
2022-08-03T03:15:53.726Z,89.98
2022-08-03T03:16:57.991Z,89.98
2022-08-03T03:17:53.725Z,89.87
2022-08-03T03:18:53.696Z,89.98
2022-08-03T03:19:53.692Z,90.28
2022-08-03T03:20:53.675Z,90.48
2022-08-03T03:21:53.669Z,90.69
2022-08-03T03:22:53.665Z,90.69
2022-08-03T03:23:53.636Z,90.58
2022-08-03T03:24:53.635Z,90.58
2022-08-03T03:25:53.616Z,90.38
2022-08-03T03:26:53.606Z,90.18
2022-08-03T03:27:53.593Z,90.42
2022-08-03T03:28:53.585Z,90.42
2022-08-03T03:29:53.585Z,90.42
2022-08-03T03:30:53.685Z,90.53
2022-08-03T03:31:53.545Z,90.73
2022-08-03T03:32:53.534Z,90.83
2022-08-03T03:33:53.525Z,91.03
2022-08-03T03:34:53.514Z,90.93
2022-08-03T03:35:53.508Z,90.93
2022-08-03T03:36:53.494Z,90.93
2022-08-03T03:37:53.487Z,90.93
2022-08-03T03:38:53.740Z,91.03
2022-08-03T03:39:53.454Z,91.03
2022-08-03T03:40:53.454Z,91.13
2022-08-03T03:41:53.423Z,91.13
2022-08-03T03:42:53.423Z,91.03
2022-08-03T03:43:53.404Z,90.83
2022-08-03T03:44:53.401Z,90.73
2022-08-03T03:45:53.400Z,90.93
2022-08-03T03:46:53.372Z,90.93
2022-08-03T03:47:53.363Z,90.83
2022-08-03T03:48:53.410Z,90.73
2022-08-03T03:49:53.342Z,90.73
2022-08-03T03:50:53.341Z,90.73
2022-08-03T03:51:53.312Z,90.53
2022-08-03T03:52:53.312Z,90.53
2022-08-03T03:53:53.295Z,90.62
2022-08-03T03:54:57.493Z,90.53
2022-08-03T03:56:01.601Z,90.73
2022-08-03T03:56:54.263Z,91.03
2022-08-03T03:57:53.249Z,91.24
2022-08-03T03:58:53.240Z,91.13
2022-08-03T03:59:53.231Z,90.93
2022-08-03T04:00:53.265Z,90.97
2022-08-03T04:01:59.289Z,90.93
2022-08-03T04:02:54.231Z,90.93
2022-08-03T04:03:53.179Z,91.03
2022-08-03T04:04:53.170Z,91.13
2022-08-03T04:05:53.152Z,91.13
2022-08-03T04:06:53.160Z,91.24
2022-08-03T04:07:53.133Z,91.34
2022-08-03T04:08:53.119Z,91.24
2022-08-03T04:09:53.110Z,91.13
2022-08-03T04:10:53.099Z,91.03
2022-08-03T04:11:53.102Z,91.24
2022-08-03T04:12:53.078Z,91.34
2022-08-03T04:13:53.060Z,91.34
2022-08-03T04:14:53.059Z,91.44
2022-08-03T04:15:53.041Z,91.44
2022-08-03T04:16:53.037Z,91.44
2022-08-03T04:17:53.040Z,91.54
2022-08-03T04:18:53.027Z,91.74
2022-08-03T04:19:52.989Z,91.64
2022-08-03T04:20:52.988Z,91.64
2022-08-03T04:21:53.002Z,91.64
2022-08-03T04:22:52.961Z,91.54
2022-08-03T04:23:52.947Z,91.44
2022-08-03T04:24:52.947Z,91.44
2022-08-03T04:25:52.931Z,91.34
2022-08-03T04:26:53.050Z,91.13
2022-08-03T04:28:28.327Z,91.24
2022-08-03T04:28:53.898Z,91.13
2022-08-03T04:29:52.882Z,91.24
2022-08-03T04:30:52.868Z,91.44
2022-08-03T04:31:52.857Z,91.44
2022-08-03T04:32:52.847Z,91.44
2022-08-03T04:33:52.849Z,91.44
2022-08-03T04:34:52.827Z,91.44
2022-08-03T04:36:00.892Z,91.34
2022-08-03T04:36:53.797Z,91.44
2022-08-03T04:37:52.789Z,91.34
2022-08-03T04:38:52.797Z,91.44
2022-08-03T04:39:52.765Z,91.54
2022-08-03T04:40:52.756Z,91.39
2022-08-03T04:42:07.165Z,91.39
2022-08-03T04:42:53.736Z,91.50
2022-08-03T04:43:52.717Z,91.50
2022-08-03T04:44:55.536Z,91.19
2022-08-03T04:45:53.696Z,91.09
2022-08-03T04:46:52.857Z,91.19
2022-08-03T04:47:52.673Z,91.09
2022-08-03T04:48:52.719Z,91.19
2022-08-03T04:49:52.653Z,91.30
2022-08-03T04:50:52.655Z,91.19
2022-08-03T04:51:52.627Z,91.30
2022-08-03T04:52:52.623Z,91.39
2022-08-03T04:53:52.604Z,91.50
2022-08-03T04:54:52.614Z,91.50
2022-08-03T04:55:52.587Z,91.60
2022-08-03T04:56:52.574Z,91.66
2022-08-03T04:57:52.563Z,91.66
2022-08-03T04:58:52.554Z,91.66
2022-08-03T04:59:54.635Z,91.75
2022-08-03T05:00:52.538Z,91.75
2022-08-03T05:01:52.601Z,91.86
2022-08-03T05:02:52.504Z,92.06
2022-08-03T05:03:52.514Z,92.16
2022-08-03T05:04:52.506Z,92.16
2022-08-03T05:05:52.485Z,92.12
2022-08-03T05:06:55.114Z,92.12
2022-08-03T05:07:52.448Z,92.22
2022-08-03T05:08:52.474Z,92.22
2022-08-03T05:09:57.640Z,92.22
2022-08-03T05:10:53.423Z,92.32
2022-08-03T05:11:52.394Z,92.42
2022-08-03T05:12:52.393Z,92.63
2022-08-03T05:13:52.387Z,92.68
2022-08-03T05:14:52.362Z,92.68
2022-08-03T05:15:52.373Z,92.79
2022-08-03T05:16:52.345Z,92.79
2022-08-03T05:17:52.332Z,92.79
2022-08-03T05:18:52.322Z,92.79
2022-08-03T05:19:52.310Z,92.74
2022-08-03T05:20:52.336Z,92.74
2022-08-03T05:21:53.079Z,92.64
2022-08-03T05:22:52.302Z,92.64
2022-08-03T05:23:52.265Z,92.74
2022-08-03T05:24:52.252Z,92.84
2022-08-03T05:25:52.252Z,92.80
2022-08-03T05:26:52.242Z,92.90
2022-08-03T05:27:52.220Z,92.90
2022-08-03T05:28:52.209Z,92.90
2022-08-03T05:29:52.192Z,92.90
2022-08-03T05:30:52.190Z,92.90
2022-08-03T05:31:52.181Z,92.85
2022-08-03T05:32:52.161Z,92.85
2022-08-03T05:33:52.151Z,92.76
2022-08-03T05:34:52.139Z,92.85
2022-08-03T05:35:57.751Z,92.76
2022-08-03T05:36:53.131Z,92.76
2022-08-03T05:37:54.504Z,92.71
2022-08-03T05:38:52.093Z,92.71
2022-08-03T05:39:52.081Z,92.71
2022-08-03T05:40:57.253Z,92.61
2022-08-03T05:41:53.072Z,92.71
2022-08-03T05:42:52.058Z,92.61
2022-08-03T05:43:52.034Z,92.77
2022-08-03T05:44:52.027Z,92.66
2022-08-03T05:46:11.663Z,92.66
2022-08-03T05:46:54.100Z,92.66
2022-08-03T05:47:52.001Z,92.46
2022-08-03T05:48:52.201Z,92.46
2022-08-03T05:49:51.968Z,92.42
2022-08-03T05:50:51.961Z,92.32
2022-08-03T05:51:59.964Z,92.32
2022-08-03T05:52:52.970Z,92.22
2022-08-03T05:53:51.952Z,92.12
2022-08-03T05:54:56.736Z,91.97
2022-08-03T05:55:56.942Z,91.47
2022-08-03T05:56:52.889Z,91.06
2022-08-03T05:57:51.880Z,90.66
2022-08-03T05:58:51.888Z,90.92
2022-08-03T05:59:54.823Z,90.62
2022-08-03T06:00:52.839Z,90.52
2022-08-03T06:01:51.861Z,90.01
2022-08-03T06:02:51.827Z,89.17
2022-08-03T06:03:51.799Z,89.26
2022-08-03T06:04:51.811Z,88.56
2022-08-03T06:06:00.039Z,88.22
2022-08-03T06:06:52.769Z,88.02
2022-08-03T06:07:51.759Z,87.98
2022-08-03T06:08:51.750Z,87.77
2022-08-03T06:09:56.725Z,87.87
2022-08-03T06:10:52.727Z,87.93
2022-08-03T06:11:51.718Z,87.23
2022-08-03T06:12:51.712Z,86.72
2022-08-03T06:13:51.709Z,86.88
2022-08-03T06:14:51.678Z,86.99
2022-08-03T06:15:51.669Z,86.28
2022-08-03T06:16:51.663Z,85.48
2022-08-03T06:17:51.647Z,84.97
2022-08-03T06:18:51.639Z,84.43
2022-08-03T06:19:51.627Z,84.83
2022-08-03T06:20:51.617Z,84.74
2022-08-03T06:21:51.608Z,84.43
2022-08-03T06:23:00.446Z,84.39
2022-08-03T06:23:54.978Z,83.49
2022-08-03T06:24:53.495Z,82.78
2022-08-03T06:25:51.557Z,82.78
2022-08-03T06:26:51.547Z,81.88
2022-08-03T06:27:51.538Z,81.78
2022-08-03T06:28:53.966Z,82.24
2022-08-03T06:29:51.526Z,82.54
2022-08-03T06:30:51.517Z,82.95
2022-08-03T06:31:51.508Z,82.84
2022-08-03T06:32:52.434Z,82.75
2022-08-03T06:34:33.567Z,81.74
2022-08-03T06:34:52.468Z,81.10
2022-08-03T06:35:51.437Z,82.00
2022-08-03T06:36:52.210Z,82.00
2022-08-03T06:37:51.418Z,82.31
2022-08-03T06:38:51.436Z,81.40
2022-08-03T06:39:51.416Z,81.70
2022-08-03T06:40:51.387Z,81.80
2022-08-03T06:41:51.377Z,81.36
2022-08-03T06:42:51.436Z,81.56
2022-08-03T06:44:03.030Z,81.56
2022-08-03T06:44:52.379Z,81.87
2022-08-03T06:45:51.326Z,81.16
2022-08-03T06:46:51.325Z,80.76
2022-08-03T06:47:51.306Z,80.86
2022-08-03T06:48:51.295Z,80.96
2022-08-03T06:50:14.295Z,80.46
2022-08-03T06:50:52.286Z,80.82
2022-08-03T06:52:05.997Z,81.02
2022-08-03T06:52:52.246Z,81.23
2022-08-03T06:53:51.237Z,81.23
2022-08-03T06:54:51.226Z,80.28
2022-08-03T06:55:54.390Z,80.28
2022-08-03T06:56:51.216Z,80.18
2022-08-03T06:57:51.210Z,79.88
2022-08-03T06:58:51.227Z,79.18
2022-08-03T07:00:09.352Z,78.98
2022-08-03T07:00:52.165Z,79.64
2022-08-03T07:01:51.215Z,79.14
2022-08-03T07:02:56.144Z,78.74
2022-08-03T07:03:52.698Z,78.04
2022-08-03T07:04:51.115Z,77.54
2022-08-03T07:05:51.104Z,77.64
2022-08-03T07:06:51.094Z,77.80
2022-08-03T07:07:51.085Z,77.30
2022-08-03T07:08:53.631Z,76.00
2022-08-03T07:09:57.317Z,76.20
2022-08-03T07:10:52.046Z,76.70
2022-08-03T07:11:51.035Z,76.70
2022-08-03T07:12:52.730Z,77.20
2022-08-03T07:13:52.006Z,76.90
2022-08-03T07:14:51.004Z,76.80
2022-08-03T07:15:55.304Z,76.30
2022-08-03T07:16:51.974Z,75.60
2022-08-03T07:17:50.976Z,75.46
2022-08-03T07:18:50.955Z,75.46
2022-08-03T07:19:50.943Z,76.06
2022-08-03T07:20:50.938Z,76.17
2022-08-03T07:21:50.926Z,76.87
2022-08-03T07:22:50.934Z,76.26
2022-08-03T07:23:50.895Z,75.76
2022-08-03T07:24:50.885Z,75.87
2022-08-03T07:25:51.018Z,76.23
2022-08-03T07:26:50.864Z,75.33
2022-08-03T07:27:51.872Z,75.13
2022-08-03T07:28:50.852Z,74.83
2022-08-03T07:29:50.824Z,74.73
2022-08-03T07:30:50.826Z,74.83
2022-08-03T07:31:51.898Z,74.19
2022-08-03T07:32:50.925Z,73.99
2022-08-03T07:33:50.804Z,73.79
2022-08-03T07:34:50.774Z,72.89
2022-08-03T07:35:50.763Z,72.99
2022-08-03T07:36:50.754Z,74.19
2022-08-03T07:37:54.408Z,73.75
2022-08-03T07:38:50.776Z,73.56
2022-08-03T07:39:50.733Z,73.16
2022-08-03T07:40:50.704Z,73.75
2022-08-03T07:41:50.693Z,73.22
2022-08-03T07:42:52.144Z,71.83
2022-08-03T07:43:50.675Z,70.72
2022-08-03T07:44:50.664Z,72.32
2022-08-03T07:45:50.662Z,72.02
2022-08-03T07:46:50.643Z,71.59
2022-08-03T07:47:53.569Z,70.29
2022-08-03T07:48:50.623Z,70.59
2022-08-03T07:49:50.606Z,69.49
2022-08-03T07:50:50.622Z,68.86
2022-08-03T07:51:50.583Z,68.96
2022-08-03T07:52:50.857Z,68.06
2022-08-03T07:53:50.563Z,66.77
2022-08-03T07:54:50.621Z,67.96
2022-08-03T07:55:50.553Z,68.46
2022-08-03T07:56:50.543Z,68.83
2022-08-03T07:57:50.521Z,65.44
2022-08-03T07:58:50.503Z,66.53
2022-08-03T07:59:56.845Z,66.53
2022-08-03T08:00:51.550Z,67.43
2022-08-03T08:01:50.513Z,67.83
2022-08-03T08:02:50.462Z,67.73
2022-08-03T08:03:52.616Z,68.90
2022-08-03T08:04:50.445Z,68.49
2022-08-03T08:05:50.422Z,67.60
2022-08-03T08:06:50.423Z,66.00
2022-08-03T08:07:51.287Z,65.61
2022-08-03T08:08:50.402Z,66.67
2022-08-03T08:09:50.371Z,67.36
2022-08-03T08:10:58.154Z,66.77
2022-08-03T08:11:51.371Z,66.87
2022-08-03T08:12:50.354Z,67.27
2022-08-03T08:13:50.334Z,67.24
2022-08-03T08:14:50.342Z,66.53
2022-08-03T08:15:50.311Z,65.54
2022-08-03T08:16:50.303Z,66.44
2022-08-03T08:17:50.299Z,67.13
2022-08-03T08:18:50.275Z,66.83
2022-08-03T08:19:53.193Z,66.53
2022-08-03T08:20:50.251Z,66.71
2022-08-03T08:21:52.928Z,66.61
2022-08-03T08:22:51.242Z,66.20
2022-08-03T08:23:57.058Z,66.61
2022-08-03T08:24:51.201Z,66.80
2022-08-03T08:25:50.201Z,66.50
2022-08-03T08:26:50.190Z,67.20
2022-08-03T08:28:30.890Z,66.08
2022-08-03T08:28:51.161Z,66.77
2022-08-03T08:29:54.206Z,66.38
2022-08-03T08:30:51.150Z,66.77
2022-08-03T08:31:50.134Z,67.27
2022-08-03T08:32:50.121Z,66.67
2022-08-03T08:34:05.406Z,65.98
2022-08-03T08:34:51.142Z,66.14
2022-08-03T08:35:50.081Z,66.05
2022-08-03T08:36:50.071Z,66.24
2022-08-03T08:37:50.960Z,66.44
2022-08-03T08:38:50.065Z,66.64
2022-08-03T08:39:50.032Z,65.75
2022-08-03T08:40:50.032Z,65.81
2022-08-03T08:41:53.194Z,67.30
2022-08-03T08:42:58.866Z,65.72
2022-08-03T08:43:51.001Z,64.22
2022-08-03T08:44:50.021Z,64.22
2022-08-03T08:45:49.971Z,63.40
2022-08-03T08:46:49.962Z,63.70
2022-08-03T08:47:51.051Z,63.57
2022-08-03T08:48:49.939Z,62.87
2022-08-03T08:50:08.928Z,63.57
2022-08-03T08:50:50.911Z,64.76
2022-08-03T08:51:59.561Z,65.55
2022-08-03T08:52:50.891Z,65.35
2022-08-03T08:53:49.889Z,62.77
2022-08-03T08:54:50.651Z,63.46
2022-08-03T08:55:59.470Z,64.36
2022-08-03T08:56:50.878Z,64.53
2022-08-03T08:57:49.841Z,63.64
2022-08-03T08:58:49.868Z,63.34
2022-08-03T08:59:52.480Z,63.43
2022-08-03T09:00:50.857Z,63.93
2022-08-03T09:01:49.790Z,64.13
2022-08-03T09:02:49.792Z,64.20
2022-08-03T09:03:49.770Z,63.31
2022-08-03T09:04:49.761Z,62.51
2022-08-03T09:05:57.039Z,63.31
2022-08-03T09:07:17.575Z,63.70
2022-08-03T09:07:50.741Z,63.28
2022-08-03T09:08:49.713Z,62.38
2022-08-03T09:10:11.239Z,62.48
2022-08-03T09:10:50.690Z,62.29
2022-08-03T09:11:57.589Z,60.60
2022-08-03T09:12:50.668Z,60.89
2022-08-03T09:13:49.660Z,60.60
2022-08-03T09:15:07.605Z,61.07
2022-08-03T09:15:52.716Z,60.86
2022-08-03T09:16:50.620Z,59.78
2022-08-03T09:17:51.277Z,59.97
2022-08-03T09:18:49.610Z,59.84
2022-08-03T09:20:03.480Z,58.75
2022-08-03T09:20:50.570Z,57.76
2022-08-03T09:21:49.619Z,58.46
2022-08-03T09:22:49.550Z,58.65
2022-08-03T09:24:02.195Z,58.63
2022-08-03T09:25:08.694Z,57.64
2022-08-03T09:25:50.519Z,57.34
2022-08-03T09:26:49.509Z,57.84
2022-08-03T09:27:49.510Z,57.34
2022-08-03T09:29:00.799Z,57.93
2022-08-03T09:29:50.480Z,59.03
2022-08-03T09:30:49.460Z,57.93
2022-08-03T09:31:49.461Z,57.34
2022-08-03T09:32:49.441Z,56.62
2022-08-03T09:33:49.439Z,56.92
2022-08-03T09:34:49.430Z,57.31
2022-08-03T09:35:53.959Z,56.62
2022-08-03T09:36:50.399Z,57.31
2022-08-03T09:38:12.306Z,56.42
2022-08-03T09:38:50.386Z,56.30
2022-08-03T09:39:49.369Z,57.39
2022-08-03T09:40:49.349Z,54.12
2022-08-03T09:41:49.350Z,55.30
2022-08-03T09:42:49.329Z,54.52
2022-08-03T09:43:50.068Z,53.33
2022-08-03T09:44:49.309Z,54.52
2022-08-03T09:45:49.309Z,53.33
2022-08-03T09:46:50.151Z,55.11
2022-08-03T09:47:49.281Z,54.88
2022-08-03T09:48:49.270Z,53.70
2022-08-03T09:49:49.262Z,53.50
2022-08-03T09:50:58.495Z,52.22
2022-08-03T09:52:32.735Z,52.41
2022-08-03T09:52:52.561Z,54.59
2022-08-03T09:53:58.463Z,55.38
2022-08-03T09:54:50.202Z,54.29
2022-08-03T09:56:35.218Z,53.30
2022-08-03T09:56:50.171Z,53.11
2022-08-03T09:57:49.169Z,53.18
2022-08-03T09:58:49.159Z,54.36
2022-08-03T09:59:49.129Z,54.06
2022-08-03T10:00:49.186Z,54.36
2022-08-03T10:01:49.119Z,52.39
2022-08-03T10:02:49.100Z,51.79
2022-08-03T10:04:04.152Z,52.98
2022-08-03T10:04:50.098Z,53.85
2022-08-03T10:05:49.061Z,52.66
2022-08-03T10:06:49.079Z,52.86
2022-08-03T10:07:49.043Z,53.35
2022-08-03T10:08:49.039Z,52.46
2022-08-03T10:09:49.037Z,53.15
2022-08-03T10:10:49.102Z,50.38
2022-08-03T10:11:49.009Z,51.37
2022-08-03T10:12:48.991Z,50.88
2022-08-03T10:13:48.977Z,51.64
2022-08-03T10:14:48.979Z,50.66
2022-08-03T10:16:22.081Z,52.14
2022-08-03T10:16:49.949Z,51.35
2022-08-03T10:17:48.939Z,50.95
2022-08-03T10:18:48.929Z,49.27
2022-08-03T10:19:48.971Z,52.53
2022-08-03T10:20:48.908Z,52.73
2022-08-03T10:21:48.890Z,51.64
2022-08-03T10:22:48.880Z,49.57
2022-08-03T10:23:48.870Z,48.98
2022-08-03T10:24:48.871Z,50.76
2022-08-03T10:25:48.839Z,50.24
2022-08-03T10:26:50.349Z,49.84
2022-08-03T10:27:49.769Z,49.25
2022-08-03T10:28:48.813Z,47.57
2022-08-03T10:29:48.819Z,48.07
2022-08-03T10:30:48.779Z,48.66
2022-08-03T10:31:57.890Z,49.74
2022-08-03T10:32:49.791Z,50.54
2022-08-03T10:33:49.720Z,51.13
2022-08-03T10:34:48.739Z,49.03
2022-08-03T10:35:48.758Z,49.92
2022-08-03T10:36:48.734Z,50.21
2022-08-03T10:37:57.156Z,50.31
2022-08-03T10:38:49.700Z,51.30
2022-08-03T10:39:48.689Z,47.65
2022-08-03T10:40:50.488Z,49.20
2022-08-03T10:41:48.926Z,50.49
2022-08-03T10:42:48.650Z,49.20
2022-08-03T10:43:48.681Z,46.15
2022-08-03T10:44:48.629Z,48.02
2022-08-03T10:45:48.619Z,46.25
2022-08-03T10:46:48.620Z,47.53
2022-08-03T10:47:48.622Z,47.70
2022-08-03T10:48:48.599Z,47.01
2022-08-03T10:49:48.613Z,47.90
2022-08-03T10:50:48.578Z,43.86
2022-08-03T10:51:48.562Z,44.06
2022-08-03T10:52:49.571Z,44.94
2022-08-03T10:53:54.724Z,48.39
2022-08-03T10:54:49.511Z,48.98
2022-08-03T10:55:48.512Z,46.59
2022-08-03T10:56:49.784Z,45.12
2022-08-03T10:57:48.807Z,47.88
2022-08-03T10:58:56.975Z,48.17
2022-08-03T10:59:49.459Z,47.66
2022-08-03T11:00:48.516Z,47.26
2022-08-03T11:01:58.306Z,45.39
2022-08-03T11:02:49.432Z,43.82
2022-08-03T11:03:49.141Z,45.00
2022-08-03T11:04:48.411Z,43.32
2022-08-03T11:05:48.389Z,43.82
2022-08-03T11:06:48.380Z,46.18
2022-08-03T11:07:54.596Z,43.32
2022-08-03T11:08:49.360Z,43.23
2022-08-03T11:09:48.347Z,45.29
2022-08-03T11:10:48.331Z,43.42
2022-08-03T11:11:48.321Z,43.23
2022-08-03T11:12:48.310Z,45.39
2022-08-03T11:13:48.310Z,44.98
2022-08-03T11:14:48.305Z,45.67
2022-08-03T11:15:48.280Z,42.52
2022-08-03T11:16:48.260Z,44.58
2022-08-03T11:17:55.863Z,44.19
2022-08-03T11:18:49.250Z,42.59
2022-08-03T11:19:56.767Z,44.36
2022-08-03T11:20:49.262Z,43.68
2022-08-03T11:21:48.215Z,41.41
2022-08-03T11:22:48.199Z,44.17
2022-08-03T11:24:04.021Z,41.02
2022-08-03T11:24:49.196Z,39.94
2022-08-03T11:25:55.088Z,41.98
2022-08-03T11:26:49.160Z,42.40
2022-08-03T11:27:48.151Z,40.11
2022-08-03T11:28:48.130Z,39.42
2022-08-03T11:29:48.141Z,37.76
2022-08-03T11:30:48.130Z,39.32
2022-08-03T11:31:50.169Z,40.31
2022-08-03T11:32:48.498Z,39.03
2022-08-03T11:33:48.080Z,37.55
2022-08-03T11:34:48.060Z,40.51
2022-08-03T11:35:48.061Z,40.80
2022-08-03T11:36:48.059Z,41.37
2022-08-03T11:38:02.456Z,39.80
2022-08-03T11:38:49.021Z,39.21
2022-08-03T11:39:48.010Z,40.09
2022-08-03T11:40:48.009Z,39.01
2022-08-03T11:41:47.990Z,37.54
2022-08-03T11:42:47.993Z,37.15
2022-08-03T11:43:47.961Z,38.32
2022-08-03T11:44:47.961Z,39.60
2022-08-03T11:45:47.940Z,39.88
2022-08-03T11:46:47.931Z,40.86
2022-08-03T11:47:50.560Z,39.09
2022-08-03T11:48:47.930Z,36.15
2022-08-03T11:49:47.901Z,37.99
2022-08-03T11:50:47.890Z,38.68
2022-08-03T11:51:47.880Z,37.50
2022-08-03T11:52:47.872Z,38.68
2022-08-03T11:53:47.854Z,38.98
2022-08-03T11:54:47.851Z,38.07
2022-08-03T11:55:48.854Z,34.83
2022-08-03T11:56:47.824Z,35.72
2022-08-03T11:59:00.851Z,37.58
2022-08-03T11:59:17.805Z,36.30
2022-08-03T11:59:48.790Z,37.38
2022-08-03T12:00:47.788Z,36.60
2022-08-03T12:01:47.775Z,36.90
2022-08-03T12:02:47.859Z,38.17
2022-08-03T12:03:47.794Z,36.60
2022-08-03T12:04:47.742Z,35.33
2022-08-03T12:05:51.896Z,32.87
2022-08-03T12:06:47.720Z,31.10
2022-08-03T12:08:04.210Z,34.25
2022-08-03T12:08:48.701Z,36.11
2022-08-03T12:09:47.683Z,35.82
2022-08-03T12:10:47.671Z,32.87
2022-08-03T12:11:59.348Z,34.93
2022-08-03T12:12:48.642Z,34.93
2022-08-03T12:14:44.750Z,33.36
2022-08-03T12:14:52.105Z,34.54
2022-08-03T12:15:47.610Z,34.05
2022-08-03T12:16:47.601Z,34.44
2022-08-03T12:17:47.603Z,34.05
2022-08-03T12:18:47.582Z,34.74
2022-08-03T12:19:47.592Z,33.46
2022-08-03T12:20:47.562Z,33.46
2022-08-03T12:21:56.956Z,35.13
2022-08-03T12:22:48.540Z,35.13
2022-08-03T12:23:47.521Z,34.93
2022-08-03T12:24:47.966Z,34.34
2022-08-03T12:25:47.645Z,34.93
2022-08-03T12:26:58.093Z,36.21
2022-08-03T12:27:48.482Z,34.25
2022-08-03T12:28:49.793Z,34.64
2022-08-03T12:29:57.233Z,34.83
2022-08-03T12:30:48.463Z,32.57
2022-08-03T12:31:47.433Z,32.87
2022-08-03T12:32:47.433Z,33.36
2022-08-03T12:33:47.421Z,36.01
2022-08-03T12:34:47.803Z,36.90
2022-08-03T12:35:52.675Z,33.65
2022-08-03T12:36:48.383Z,31.50
2022-08-03T12:37:47.372Z,33.17
2022-08-03T12:38:47.364Z,33.58
2022-08-03T12:40:02.982Z,33.77
2022-08-03T12:40:48.341Z,34.36
2022-08-03T12:41:47.332Z,34.66
2022-08-03T12:42:47.321Z,33.48
2022-08-03T12:43:47.303Z,32.30
2022-08-03T12:44:47.301Z,33.28
2022-08-03T12:45:48.283Z,33.58
2022-08-03T12:46:48.194Z,34.06
2022-08-03T12:47:47.262Z,34.75
2022-08-03T12:48:47.253Z,32.50
2022-08-03T12:49:47.253Z,32.98
2022-08-03T12:50:47.234Z,32.98
2022-08-03T12:51:48.212Z,33.48
2022-08-03T12:52:47.211Z,34.95